createdAt,value
2022-11-24T00:02:20.932Z,2.30
2022-11-24T00:04:53.988Z,2.30
2022-11-24T00:07:20.589Z,2.30
2022-11-24T00:09:47.343Z,2.30
2022-11-24T00:12:21.081Z,2.20
2022-11-24T00:14:47.677Z,2.30
2022-11-24T00:17:14.301Z,2.30
2022-11-24T00:19:48.939Z,2.30
2022-11-24T00:22:22.003Z,2.20
2022-11-24T00:24:48.617Z,2.30
2022-11-24T00:27:21.933Z,2.30
2022-11-24T00:29:48.568Z,2.30
2022-11-24T00:32:15.312Z,2.30
2022-11-24T00:34:49.046Z,2.30
2022-11-24T00:37:15.640Z,2.30
2022-11-24T00:39:48.982Z,2.30
2022-11-24T00:42:15.605Z,2.30
2022-11-24T00:44:54.985Z,2.30
2022-11-24T00:47:21.624Z,2.30
2022-11-24T00:49:54.956Z,2.30
2022-11-24T00:52:21.567Z,2.30
2022-11-24T00:54:54.950Z,2.30
2022-11-24T00:57:21.523Z,2.30
2022-11-24T00:59:48.093Z,2.30
2022-11-24T01:02:21.110Z,2.30
2022-11-24T01:04:47.736Z,2.30
2022-11-24T01:07:20.993Z,2.30
2022-11-24T01:09:47.788Z,2.40
2022-11-24T01:12:21.045Z,2.30
2022-11-24T01:14:47.700Z,2.30
2022-11-24T01:17:14.336Z,2.40
2022-11-24T01:19:47.943Z,2.30
2022-11-24T01:22:21.951Z,2.30
2022-11-24T01:24:48.572Z,2.30
2022-11-24T01:27:21.956Z,2.30
2022-11-24T01:29:48.558Z,2.30
2022-11-24T01:32:15.167Z,2.30
2022-11-24T01:34:47.947Z,2.30
2022-11-24T01:37:14.653Z,2.30
2022-11-24T01:39:48.058Z,2.30
2022-11-24T01:42:14.647Z,2.30
2022-11-24T01:44:54.971Z,2.30
2022-11-24T01:47:36.460Z,2.30
2022-11-24T01:50:11.075Z,2.30
2022-11-24T01:52:44.298Z,2.30
2022-11-24T01:55:26.931Z,2.30
2022-11-24T01:58:13.983Z,2.30
2022-11-24T02:00:49.918Z,2.30
2022-11-24T02:03:22.070Z,2.30
2022-11-24T02:06:05.016Z,2.40
2022-11-24T02:08:54.697Z,2.40
2022-11-24T02:11:30.922Z,2.30
2022-11-24T02:13:57.742Z,2.30
2022-11-24T02:16:25.100Z,2.30
2022-11-24T02:18:59.013Z,2.30
2022-11-24T02:21:25.720Z,2.30
2022-11-24T02:24:16.001Z,2.30
2022-11-24T02:26:52.966Z,2.30
2022-11-24T02:29:20.856Z,2.30
2022-11-24T02:32:02.000Z,2.30
2022-11-24T02:34:28.658Z,2.30
2022-11-24T02:36:55.301Z,2.30
2022-11-24T02:39:28.036Z,2.30
2022-11-24T02:42:01.561Z,2.30
2022-11-24T02:44:38.970Z,2.30
2022-11-24T02:47:12.454Z,2.30
2022-11-24T02:49:45.929Z,2.30
2022-11-24T02:52:12.525Z,2.30
2022-11-24T02:54:39.117Z,2.30
2022-11-24T02:57:11.990Z,2.30
2022-11-24T02:59:38.801Z,2.30
2022-11-24T03:02:11.929Z,2.30
2022-11-24T03:04:38.507Z,2.30
2022-11-24T03:07:05.084Z,2.30
2022-11-24T03:09:38.920Z,2.30
2022-11-24T03:12:05.752Z,2.30
2022-11-24T03:14:32.811Z,2.30
2022-11-24T03:17:05.940Z,2.30
2022-11-24T03:19:33.164Z,2.20
2022-11-24T03:22:07.012Z,2.30
2022-11-24T03:24:33.873Z,2.30
2022-11-24T03:27:06.921Z,2.20
2022-11-24T03:29:39.912Z,2.20
2022-11-24T03:32:12.947Z,2.20
2022-11-24T03:34:39.588Z,2.20
2022-11-24T03:37:06.182Z,2.20
2022-11-24T03:39:38.941Z,2.20
2022-11-24T03:42:12.003Z,2.20
2022-11-24T03:45:04.221Z,2.20
2022-11-24T03:47:49.971Z,2.20
2022-11-24T03:50:23.004Z,2.20
2022-11-24T03:52:49.605Z,2.10
2022-11-24T03:55:16.371Z,2.10
2022-11-24T03:57:49.970Z,2.10
2022-11-24T04:00:23.933Z,2.10
2022-11-24T04:02:50.644Z,2.10
2022-11-24T04:05:17.437Z,2.10
2022-11-24T04:07:51.043Z,2.10
2022-11-24T04:10:17.747Z,2.10
2022-11-24T04:12:44.382Z,2.10
2022-11-24T04:15:19.907Z,2.10
2022-11-24T04:17:54.026Z,2.10
2022-11-24T04:20:27.914Z,2.10
2022-11-24T04:22:54.480Z,2.10
2022-11-24T04:25:21.049Z,2.10
2022-11-24T04:27:58.910Z,2.20
2022-11-24T04:30:34.030Z,2.10
2022-11-24T04:33:10.926Z,2.20
2022-11-24T04:35:37.506Z,2.10
2022-11-24T04:38:10.986Z,2.10
2022-11-24T04:40:44.980Z,2.00
2022-11-24T04:43:12.095Z,2.00
2022-11-24T04:45:51.968Z,2.10
2022-11-24T04:48:18.543Z,2.00
2022-11-24T04:50:45.126Z,2.10
2022-11-24T04:53:17.961Z,2.10
2022-11-24T04:55:51.413Z,2.10
2022-11-24T04:58:31.912Z,2.10
2022-11-24T05:00:58.515Z,2.10
2022-11-24T05:03:25.100Z,2.10
2022-11-24T05:05:57.981Z,2.00
2022-11-24T05:08:30.928Z,2.00
2022-11-24T05:11:03.920Z,2.00
2022-11-24T05:13:30.533Z,1.90
2022-11-24T05:16:03.963Z,1.90
2022-11-24T05:18:30.580Z,2.00
2022-11-24T05:20:58.462Z,2.00
2022-11-24T05:23:31.981Z,2.00
2022-11-24T05:26:01.823Z,2.00
2022-11-24T05:28:28.909Z,1.90
2022-11-24T05:31:06.005Z,2.00
2022-11-24T05:33:33.372Z,1.90
2022-11-24T05:36:14.944Z,2.00
2022-11-24T05:38:54.958Z,2.00
2022-11-24T05:41:21.585Z,2.00
2022-11-24T05:43:54.916Z,2.00
2022-11-24T05:46:28.364Z,2.00
2022-11-24T05:49:01.931Z,1.90
2022-11-24T05:51:28.719Z,1.90
2022-11-24T05:53:55.292Z,1.90
2022-11-24T05:56:28.010Z,1.90
2022-11-24T05:58:55.165Z,1.90
2022-11-24T06:01:21.806Z,1.90
2022-11-24T06:03:54.979Z,1.90
2022-11-24T06:06:21.637Z,1.90
2022-11-24T06:08:54.936Z,1.90
2022-11-24T06:11:22.123Z,1.90
2022-11-24T06:13:54.973Z,1.90
2022-11-24T06:16:27.978Z,1.90
2022-11-24T06:18:54.640Z,1.90
2022-11-24T06:21:21.380Z,1.90
2022-11-24T06:23:55.906Z,1.90
2022-11-24T06:26:29.011Z,1.90
2022-11-24T06:29:01.951Z,1.90
2022-11-24T06:31:28.613Z,1.90
2022-11-24T06:33:55.361Z,1.90
2022-11-24T06:36:28.930Z,1.80
2022-11-24T06:38:55.584Z,1.90
2022-11-24T06:41:22.192Z,1.90
2022-11-24T06:43:54.905Z,1.90
2022-11-24T06:46:28.974Z,1.90
2022-11-24T06:48:55.607Z,1.90
2022-11-24T06:51:28.968Z,1.90
2022-11-24T06:54:01.994Z,1.80
2022-11-24T06:56:28.628Z,1.80
2022-11-24T06:59:01.996Z,1.80
2022-11-24T07:01:29.845Z,1.80
2022-11-24T07:04:03.899Z,1.80
2022-11-24T07:06:31.497Z,1.80
2022-11-24T07:08:58.124Z,1.80
2022-11-24T07:11:30.953Z,1.80
2022-11-24T07:14:00.032Z,1.80
2022-11-24T07:16:27.868Z,1.80
2022-11-24T07:19:01.912Z,1.80
2022-11-24T07:21:30.687Z,1.90
2022-11-24T07:24:04.917Z,1.90
2022-11-24T07:26:31.695Z,1.90
2022-11-24T07:29:04.911Z,1.90
2022-11-24T07:31:31.621Z,1.90
2022-11-24T07:33:58.280Z,1.90
2022-11-24T07:36:31.928Z,1.90
2022-11-24T07:39:04.976Z,1.90
2022-11-24T07:41:31.571Z,2.00
2022-11-24T07:44:11.942Z,2.00
2022-11-24T07:46:45.410Z,2.10
2022-11-24T07:49:18.913Z,2.10
2022-11-24T07:51:45.858Z,2.10
2022-11-24T07:54:12.513Z,2.10
2022-11-24T07:56:45.916Z,2.10
2022-11-24T07:59:12.515Z,2.20
2022-11-24T08:01:46.122Z,2.10
2022-11-24T08:04:12.903Z,2.10
2022-11-24T08:06:44.501Z,2.20
2022-11-24T08:09:19.966Z,2.20
2022-11-24T08:11:46.555Z,2.20
2022-11-24T08:14:19.911Z,2.30
2022-11-24T08:16:46.731Z,2.30
2022-11-24T08:19:20.117Z,2.30
2022-11-24T08:21:52.914Z,2.40
2022-11-24T08:24:25.933Z,2.40
2022-11-24T08:26:58.910Z,2.40
2022-11-24T08:29:36.036Z,2.40
2022-11-24T08:32:02.772Z,2.50
2022-11-24T08:34:29.469Z,2.50
2022-11-24T08:37:02.928Z,2.50
2022-11-24T08:39:35.982Z,2.50
2022-11-24T08:42:02.602Z,2.50
2022-11-24T08:44:42.948Z,2.50
2022-11-24T08:47:15.986Z,2.50
2022-11-24T08:49:42.582Z,2.60
2022-11-24T08:52:15.965Z,2.70
2022-11-24T08:54:50.917Z,2.70
2022-11-24T08:57:21.796Z,2.80
2022-11-24T08:59:54.972Z,2.80
2022-11-24T09:02:27.919Z,2.90
2022-11-24T09:04:54.568Z,2.90
2022-11-24T09:07:21.224Z,3.00
2022-11-24T09:09:54.052Z,3.10
2022-11-24T09:12:20.704Z,3.10
2022-11-24T09:14:53.909Z,3.10
2022-11-24T09:17:20.489Z,3.20
2022-11-24T09:19:53.937Z,3.20
2022-11-24T09:22:20.529Z,3.20
2022-11-24T09:24:53.955Z,3.20
2022-11-24T09:27:20.646Z,3.20
2022-11-24T09:29:47.220Z,3.30
2022-11-24T09:32:19.980Z,3.30
2022-11-24T09:34:46.605Z,3.40
2022-11-24T09:37:19.951Z,3.40
2022-11-24T09:39:46.587Z,3.40
2022-11-24T09:42:36.333Z,3.40
2022-11-24T09:45:57.544Z,3.50
2022-11-24T09:48:36.931Z,3.40
2022-11-24T09:51:04.830Z,3.50
2022-11-24T09:53:48.915Z,3.50
2022-11-24T09:56:28.811Z,3.50
2022-11-24T09:59:16.942Z,3.60
2022-11-24T10:01:45.708Z,3.60
2022-11-24T10:04:41.978Z,3.60
2022-11-24T10:07:12.071Z,3.50
2022-11-24T10:10:24.189Z,3.60
2022-11-24T10:12:51.523Z,3.60
2022-11-24T10:15:52.012Z,3.60
2022-11-24T10:18:39.891Z,3.70
2022-11-24T10:21:27.975Z,3.70
2022-11-24T10:24:21.891Z,3.70
2022-11-24T10:27:00.781Z,3.80
2022-11-24T10:29:47.968Z,3.70
2022-11-24T10:32:19.555Z,3.80
2022-11-24T10:34:57.912Z,3.80
2022-11-24T10:37:40.595Z,3.80
2022-11-24T10:40:55.477Z,3.80
2022-11-24T10:43:12.756Z,3.80
2022-11-24T10:45:53.931Z,3.90
2022-11-24T10:48:43.956Z,3.90
2022-11-24T10:51:32.979Z,3.90
2022-11-24T10:54:18.943Z,4.00
2022-11-24T10:56:47.300Z,4.10
2022-11-24T10:59:49.944Z,4.10
2022-11-24T11:02:39.056Z,4.10
2022-11-24T11:05:33.996Z,4.10
2022-11-24T11:08:28.340Z,4.20
2022-11-24T11:11:23.945Z,4.20
2022-11-24T11:14:05.069Z,4.30
2022-11-24T11:16:54.954Z,4.30
2022-11-24T11:19:54.146Z,4.30
2022-11-24T11:22:50.389Z,4.30
2022-11-24T11:25:29.653Z,4.40
2022-11-24T11:28:33.889Z,4.40
2022-11-24T11:31:21.120Z,4.40
2022-11-24T11:34:29.984Z,4.50
2022-11-24T11:36:59.629Z,4.50
2022-11-24T11:39:48.309Z,4.60
2022-11-24T11:43:06.239Z,4.60
2022-11-24T11:45:58.009Z,4.60
2022-11-24T11:48:43.292Z,4.60
2022-11-24T11:51:23.460Z,4.80
2022-11-24T11:53:59.793Z,4.90
2022-11-24T11:56:39.898Z,5.00
2022-11-24T11:59:26.471Z,5.00
2022-11-24T12:02:17.945Z,5.00
2022-11-24T12:04:52.648Z,5.10
2022-11-24T12:08:04.942Z,5.10
2022-11-24T12:11:07.932Z,5.10
2022-11-24T12:14:18.609Z,5.10
2022-11-24T12:17:11.883Z,5.20
2022-11-24T12:19:54.894Z,5.20
2022-11-24T12:22:37.610Z,5.10
2022-11-24T12:25:33.915Z,5.10
2022-11-24T12:28:29.925Z,5.10
2022-11-24T12:31:14.976Z,5.20
2022-11-24T12:34:19.356Z,5.10
2022-11-24T12:37:16.963Z,5.10
2022-11-24T12:40:03.669Z,5.20
2022-11-24T12:43:06.884Z,5.10
2022-11-24T12:45:54.947Z,4.90
2022-11-24T12:48:39.263Z,4.90
2022-11-24T12:51:21.955Z,4.90
2022-11-24T12:53:50.768Z,4.90
2022-11-24T12:56:28.930Z,5.00
2022-11-24T12:59:24.880Z,5.00
2022-11-24T13:02:17.219Z,4.90
2022-11-24T13:04:59.955Z,4.90
2022-11-24T13:07:48.992Z,4.90
2022-11-24T13:10:46.476Z,4.90
2022-11-24T13:13:22.033Z,5.00
2022-11-24T13:16:20.697Z,5.00
2022-11-24T13:19:08.006Z,5.00
2022-11-24T13:21:58.988Z,5.00
2022-11-24T13:24:31.042Z,5.00
2022-11-24T13:27:22.885Z,4.90
2022-11-24T13:29:50.918Z,4.90
2022-11-24T13:32:29.965Z,4.90
2022-11-24T13:35:04.166Z,4.90
2022-11-24T13:37:36.899Z,4.90
2022-11-24T13:40:29.916Z,4.80
2022-11-24T13:43:10.941Z,4.80
2022-11-24T13:45:55.929Z,4.70
2022-11-24T13:48:42.028Z,4.70
2022-11-24T13:51:17.216Z,4.70
2022-11-24T13:53:53.884Z,4.70
2022-11-24T13:56:24.483Z,4.70
2022-11-24T13:59:09.968Z,4.70
2022-11-24T14:01:40.610Z,4.60
2022-11-24T14:04:31.067Z,4.60
2022-11-24T14:07:09.932Z,4.60
2022-11-24T14:09:52.956Z,4.60
2022-11-24T14:12:33.991Z,4.60
2022-11-24T14:15:24.379Z,4.60
2022-11-24T14:17:57.922Z,4.50
2022-11-24T14:20:32.885Z,4.60
2022-11-24T14:23:06.913Z,4.50
2022-11-24T14:25:35.190Z,4.50
2022-11-24T14:28:08.973Z,4.50
2022-11-24T14:30:42.103Z,4.50
2022-11-24T14:33:18.433Z,4.50
2022-11-24T14:35:53.926Z,4.50
2022-11-24T14:38:20.578Z,4.50
2022-11-24T14:40:57.908Z,4.50
2022-11-24T14:43:31.855Z,4.50
2022-11-24T14:46:19.004Z,4.40
2022-11-24T14:48:55.911Z,4.40
2022-11-24T14:51:37.138Z,4.40
2022-11-24T14:54:07.338Z,4.30
2022-11-24T14:56:41.947Z,4.30
2022-11-24T14:59:29.929Z,4.30
2022-11-24T15:01:57.413Z,4.30
2022-11-24T15:07:31.971Z,4.20
2022-11-24T15:10:07.955Z,4.20
2022-11-24T15:12:46.894Z,4.20
2022-11-24T15:15:20.064Z,4.10
2022-11-24T15:17:53.487Z,4.10
2022-11-24T15:20:36.975Z,4.10
2022-11-24T15:23:22.286Z,4.10
2022-11-24T15:25:59.917Z,4.20
2022-11-24T15:28:26.696Z,4.10
2022-11-24T15:31:07.948Z,4.10
2022-11-24T15:33:34.603Z,4.10
2022-11-24T15:36:01.282Z,4.10
2022-11-24T15:38:34.940Z,4.10
2022-11-24T15:41:02.020Z,4.10
2022-11-24T15:43:40.970Z,4.00
2022-11-24T15:46:14.519Z,4.00
2022-11-24T15:48:47.889Z,4.00
2022-11-24T15:51:21.940Z,4.00
2022-11-24T15:54:00.961Z,3.90
2022-11-24T15:56:40.879Z,4.00
2022-11-24T15:59:21.174Z,4.00
2022-11-24T16:01:50.088Z,4.00
2022-11-24T16:04:16.960Z,4.00
2022-11-24T16:06:49.953Z,4.00
2022-11-24T16:09:17.230Z,4.00
2022-11-24T16:11:44.047Z,4.00
2022-11-24T16:14:16.951Z,4.00
2022-11-24T16:16:56.946Z,4.00
2022-11-24T16:19:23.523Z,4.00
2022-11-24T16:21:56.938Z,4.00
2022-11-24T16:24:23.856Z,4.00
2022-11-24T16:26:56.893Z,4.00
2022-11-24T16:29:24.244Z,3.90
2022-11-24T16:31:54.449Z,4.00
2022-11-24T16:34:27.896Z,4.00
2022-11-24T16:36:54.481Z,4.00
2022-11-24T16:39:27.970Z,3.90
2022-11-24T16:41:54.555Z,4.00
2022-11-24T16:44:27.919Z,3.90
2022-11-24T16:47:01.395Z,4.00
2022-11-24T16:49:34.896Z,3.90
2022-11-24T16:52:01.492Z,3.90
2022-11-24T16:54:28.130Z,4.00
2022-11-24T16:57:01.881Z,3.90
2022-11-24T16:59:28.495Z,4.00
2022-11-24T17:02:01.966Z,4.00
2022-11-24T17:04:28.616Z,3.90
2022-11-24T17:06:55.249Z,3.90
2022-11-24T17:09:29.017Z,4.00
2022-11-24T17:11:55.643Z,3.90
2022-11-24T17:14:28.964Z,4.00
2022-11-24T17:17:05.278Z,3.90
2022-11-24T17:19:32.216Z,4.00
2022-11-24T17:21:58.944Z,4.00
2022-11-24T17:24:32.224Z,4.00
2022-11-24T17:27:05.896Z,4.00
2022-11-24T17:29:38.961Z,4.00
2022-11-24T17:32:05.733Z,4.00
2022-11-24T17:34:38.893Z,4.00
2022-11-24T17:37:05.605Z,4.00
2022-11-24T17:39:32.512Z,4.00
2022-11-24T17:42:05.898Z,3.90
2022-11-24T17:44:38.920Z,3.90
2022-11-24T17:47:11.984Z,3.90
2022-11-24T17:49:51.880Z,3.90
2022-11-24T17:52:18.920Z,3.90
2022-11-24T17:54:57.148Z,3.90
2022-11-24T17:57:32.907Z,3.90
2022-11-24T17:59:59.504Z,3.90
2022-11-24T18:02:32.949Z,3.80
2022-11-24T18:04:59.603Z,3.80
2022-11-24T18:07:32.920Z,3.80
2022-11-24T18:09:59.588Z,3.80
2022-11-24T18:12:32.883Z,3.80
2022-11-24T18:15:05.932Z,3.80
2022-11-24T18:17:32.562Z,3.80
2022-11-24T18:19:59.149Z,3.80
2022-11-24T18:22:57.920Z,3.80
2022-11-24T18:25:19.536Z,3.80
2022-11-24T18:27:52.885Z,3.80
2022-11-24T18:30:19.607Z,3.80
2022-11-24T18:32:46.199Z,3.80
2022-11-24T18:35:18.901Z,3.80
2022-11-24T18:37:52.349Z,3.70
2022-11-24T18:40:25.871Z,3.70
2022-11-24T18:42:52.463Z,3.70
2022-11-24T18:45:32.929Z,3.60
2022-11-24T18:48:06.541Z,3.60
2022-11-24T18:50:39.877Z,3.60
2022-11-24T18:53:06.577Z,3.60
2022-11-24T18:55:33.182Z,3.60
2022-11-24T18:58:05.877Z,3.60
2022-11-24T19:00:33.500Z,3.60
2022-11-24T19:03:06.886Z,3.60
2022-11-24T19:05:34.694Z,3.60
2022-11-24T19:08:07.894Z,3.60
2022-11-24T19:10:44.879Z,3.60
2022-11-24T19:13:12.666Z,3.60
2022-11-24T19:15:45.900Z,3.60
2022-11-24T19:18:18.877Z,3.60
2022-11-24T19:20:52.907Z,3.70
2022-11-24T19:23:19.545Z,3.70
2022-11-24T19:25:46.131Z,3.70
2022-11-24T19:28:18.897Z,3.70
2022-11-24T19:30:45.501Z,3.70
2022-11-24T19:33:18.857Z,3.70
2022-11-24T19:35:45.452Z,3.70
2022-11-24T19:38:18.866Z,3.70
2022-11-24T19:40:45.443Z,3.70
2022-11-24T19:43:12.011Z,3.70
2022-11-24T19:45:49.905Z,3.70
2022-11-24T19:48:16.548Z,3.70
2022-11-24T19:50:43.134Z,3.70
2022-11-24T19:53:15.895Z,3.70
2022-11-24T19:55:42.533Z,3.70
2022-11-24T19:58:09.118Z,3.80
2022-11-24T20:00:41.923Z,3.80
2022-11-24T20:03:08.726Z,3.80
2022-11-24T20:05:35.340Z,3.70
2022-11-24T20:08:08.911Z,3.70
2022-11-24T20:10:35.527Z,3.70
2022-11-24T20:13:08.892Z,3.70
2022-11-24T20:15:35.459Z,3.70
2022-11-24T20:18:08.870Z,3.60
2022-11-24T20:20:35.446Z,3.60
2022-11-24T20:23:08.879Z,3.60
2022-11-24T20:25:45.024Z,3.50
2022-11-24T20:28:17.890Z,3.50
2022-11-24T20:30:44.481Z,3.50
2022-11-24T20:33:17.891Z,3.50
2022-11-24T20:35:44.465Z,3.40
2022-11-24T20:38:11.080Z,3.40
2022-11-24T20:40:43.874Z,3.40
2022-11-24T20:43:10.560Z,3.40
2022-11-24T20:45:56.984Z,3.30
2022-11-24T20:48:23.644Z,3.30
2022-11-24T20:50:51.572Z,3.30
2022-11-24T20:53:24.897Z,3.30
2022-11-24T20:55:51.494Z,3.30
2022-11-24T20:58:24.882Z,3.30
2022-11-24T21:00:58.908Z,3.30
2022-11-24T21:03:25.750Z,3.30
2022-11-24T21:09:03.233Z,3.30
2022-11-24T21:11:36.894Z,3.30
2022-11-24T21:14:10.875Z,3.30
2022-11-24T21:16:45.936Z,3.40
2022-11-24T21:19:21.200Z,3.40
2022-11-24T21:21:48.786Z,3.40
2022-11-24T21:24:17.838Z,3.40
2022-11-24T21:26:53.873Z,3.40
2022-11-24T21:29:23.294Z,3.40
2022-11-24T21:31:57.065Z,3.40
2022-11-24T21:34:23.721Z,3.40
2022-11-24T21:36:56.933Z,3.40
2022-11-24T21:39:23.573Z,3.40
2022-11-24T21:41:50.240Z,3.40
2022-11-24T21:44:22.892Z,3.40
2022-11-24T21:47:09.835Z,3.40
2022-11-24T21:49:42.955Z,3.40
2022-11-24T21:52:15.942Z,3.40
2022-11-24T21:54:42.545Z,3.40
2022-11-24T21:57:21.953Z,3.40
2022-11-24T21:59:49.024Z,3.40
2022-11-24T22:02:15.651Z,3.40
2022-11-24T22:04:48.919Z,3.50
2022-11-24T22:07:21.983Z,3.40
2022-11-24T22:09:55.920Z,3.40
2022-11-24T22:12:22.499Z,3.50
2022-11-24T22:14:49.075Z,3.50
2022-11-24T22:17:21.935Z,3.50
2022-11-24T22:19:48.576Z,3.50
2022-11-24T22:22:15.148Z,3.50
2022-11-24T22:24:47.858Z,3.40
2022-11-24T22:27:20.876Z,3.40
2022-11-24T22:29:54.362Z,3.40
2022-11-24T22:32:27.935Z,3.40
2022-11-24T22:34:54.524Z,3.50
2022-11-24T22:37:21.108Z,3.50
2022-11-24T22:39:53.859Z,3.50
2022-11-24T22:42:20.485Z,3.50
2022-11-24T22:44:53.937Z,3.50
2022-11-24T22:47:33.853Z,3.50
2022-11-24T22:50:13.888Z,3.60
2022-11-24T22:52:46.910Z,3.60
2022-11-24T22:55:13.538Z,3.60
2022-11-24T22:57:48.427Z,3.60
2022-11-24T23:00:16.222Z,3.60
2022-11-24T23:02:42.945Z,3.60
2022-11-24T23:05:20.738Z,3.60
2022-11-24T23:07:53.898Z,3.50
2022-11-24T23:10:27.928Z,3.50
2022-11-24T23:12:55.500Z,3.40
2022-11-24T23:15:22.088Z,3.40
2022-11-24T23:17:54.920Z,3.40
2022-11-24T23:20:22.726Z,3.40
2022-11-24T23:22:49.300Z,3.40
2022-11-24T23:25:22.914Z,3.50
2022-11-24T23:27:49.507Z,3.50
2022-11-24T23:30:22.922Z,3.50
2022-11-24T23:32:49.507Z,3.60
2022-11-24T23:35:16.137Z,3.60
2022-11-24T23:38:07.903Z,3.60
2022-11-24T23:40:40.855Z,3.60
2022-11-24T23:43:07.443Z,3.60
2022-11-24T23:45:41.021Z,3.50
2022-11-24T23:48:27.861Z,3.50
2022-11-24T23:51:00.881Z,3.60
2022-11-24T23:53:30.449Z,3.60
2022-11-24T23:55:57.056Z,3.60
2022-11-24T23:58:29.996Z,3.60
